createdAt,value
2019-01-04T00:01:55.296Z,20.27
2019-01-04T00:07:00.348Z,18.47
2019-01-04T00:12:05.344Z,17.53
2019-01-04T00:17:10.433Z,14.60
2019-01-04T00:22:15.407Z,18.47
2019-01-04T00:27:20.436Z,13.07
2019-01-04T00:32:25.407Z,16.07
2019-01-04T00:37:30.482Z,14.27
2019-01-04T00:42:35.565Z,11.30
2019-01-04T00:47:40.665Z,10.80
2019-01-04T00:52:45.715Z,11.63
2019-01-04T00:58:08.618Z,11.13
2019-01-04T01:03:50.175Z,9.30
2019-01-04T01:09:39.483Z,10.47
2019-01-04T01:15:20.672Z,7.73
2019-01-04T01:21:20.972Z,9.87
2019-01-04T01:27:05.089Z,8.40
2019-01-04T01:32:59.227Z,8.50
2019-01-04T01:38:50.221Z,8.53
2019-01-04T01:44:54.710Z,8.07
2019-01-04T01:50:36.844Z,12.63
2019-01-04T01:55:41.855Z,6.40
2019-01-04T02:00:46.855Z,5.67
2019-01-04T02:05:51.879Z,7.63
2019-01-04T02:10:56.874Z,5.47
2019-01-04T02:16:01.872Z,5.53
2019-01-04T02:21:06.860Z,3.60
2019-01-04T02:26:11.899Z,3.87
2019-01-04T02:31:16.881Z,7.77
2019-01-04T02:36:21.982Z,12.70
2019-01-04T02:41:27.012Z,16.43
2019-01-04T02:46:32.010Z,18.87
2019-01-04T02:51:37.017Z,19.30
2019-01-04T02:56:42.003Z,18.50
2019-01-04T03:01:47.039Z,12.03
2019-01-04T03:06:52.051Z,7.87
2019-01-04T03:11:57.103Z,7.57
2019-01-04T03:17:02.148Z,8.33
2019-01-04T03:22:07.146Z,7.83
2019-01-04T03:27:12.146Z,7.70
2019-01-04T03:32:17.269Z,7.03
2019-01-04T03:37:22.328Z,7.13
2019-01-04T03:42:27.418Z,6.10
2019-01-04T03:47:32.463Z,5.47
2019-01-04T03:52:37.467Z,5.67
2019-01-04T03:57:42.487Z,5.30
2019-01-04T04:02:47.578Z,7.00
2019-01-04T04:07:52.580Z,7.17
2019-01-04T04:12:57.589Z,6.43
2019-01-04T04:18:02.582Z,10.47
2019-01-04T04:23:07.583Z,10.87
2019-01-04T04:28:12.576Z,11.50
2019-01-04T04:33:17.574Z,6.17
2019-01-04T04:38:22.636Z,18.10
2019-01-04T04:43:27.672Z,7.43
2019-01-04T04:48:32.684Z,6.53
2019-01-04T04:53:37.830Z,10.63
2019-01-04T04:58:42.829Z,50.70
2019-01-04T05:03:48.714Z,12.90
2019-01-04T05:08:53.749Z,11.17
2019-01-04T05:13:58.737Z,11.63
2019-01-04T05:19:03.745Z,11.17
2019-01-04T05:24:08.777Z,8.90
2019-01-04T05:29:13.839Z,9.27
2019-01-04T05:34:19.314Z,10.50
2019-01-04T05:39:24.984Z,10.50
2019-01-04T05:44:29.987Z,16.03
2019-01-04T05:49:35.331Z,14.67
2019-01-04T05:54:40.345Z,31.27
2019-01-04T05:59:45.440Z,11.53
2019-01-04T06:04:50.471Z,17.40
2019-01-04T06:09:55.788Z,11.20
2019-01-04T06:15:00.850Z,14.90
2019-01-04T06:20:06.935Z,33.23
2019-01-04T06:25:11.928Z,19.20
2019-01-04T06:30:17.048Z,13.43
2019-01-04T06:35:22.621Z,12.73
2019-01-04T06:40:27.888Z,12.27
2019-01-04T06:45:32.957Z,12.40
2019-01-04T06:50:38.428Z,17.03
2019-01-04T06:55:55.179Z,27.60
2019-01-04T07:01:00.276Z,26.77
2019-01-04T07:06:05.386Z,30.03
2019-01-04T07:11:10.472Z,21.23
2019-01-04T07:16:15.515Z,21.07
2019-01-04T07:21:20.588Z,18.13
2019-01-04T07:26:26.181Z,41.30
2019-01-04T07:31:32.553Z,22.47
2019-01-04T07:36:39.748Z,39.50
2019-01-04T07:41:45.107Z,11.90
2019-01-04T07:46:52.854Z,15.87
2019-01-04T07:51:58.185Z,14.03
2019-01-04T07:57:03.417Z,18.60
2019-01-04T08:02:52.498Z,11.00
2019-01-04T08:07:58.507Z,13.73
2019-01-04T08:13:04.278Z,30.57
2019-01-04T08:18:10.500Z,13.07
2019-01-04T08:23:15.764Z,14.03
2019-01-04T08:28:21.918Z,37.23
2019-01-04T08:33:27.326Z,24.53
2019-01-04T08:38:33.124Z,46.37
2019-01-04T08:43:39.574Z,36.13
2019-01-04T08:48:44.795Z,17.17
2019-01-04T08:53:57.814Z,77.03
2019-01-04T08:59:03.222Z,36.77
2019-01-04T09:04:09.063Z,31.67
2019-01-04T09:09:14.323Z,49.60
2019-01-04T09:14:19.647Z,43.53
2019-01-04T09:19:25.065Z,62.10
2019-01-04T09:24:30.109Z,46.30
2019-01-04T09:29:36.931Z,58.20
2019-01-04T09:34:41.941Z,49.40
2019-01-04T09:39:46.935Z,49.67
2019-01-04T09:44:51.919Z,51.00
2019-01-04T09:49:56.968Z,53.87
2019-01-04T09:55:01.972Z,47.07
2019-01-04T10:00:10.645Z,49.57
2019-01-04T10:05:15.680Z,53.60
2019-01-04T10:10:20.676Z,47.97
2019-01-04T10:15:25.688Z,51.47
2019-01-04T10:20:30.678Z,57.87
2019-01-04T10:25:35.695Z,53.47
2019-01-04T10:30:40.680Z,59.13
2019-01-04T10:35:45.682Z,52.80
2019-01-04T10:40:50.672Z,38.80
2019-01-04T10:45:55.651Z,49.90
2019-01-04T10:51:00.685Z,50.10
2019-01-04T10:56:05.728Z,64.20
2019-01-04T11:01:10.853Z,89.10
2019-01-04T11:06:15.856Z,103.23
2019-01-04T11:11:20.872Z,118.50
2019-01-04T11:16:25.887Z,121.20
2019-01-04T11:21:30.889Z,93.20
2019-01-04T11:26:57.143Z,76.87
2019-01-04T11:32:40.367Z,54.07
2019-01-04T11:38:41.303Z,63.60
2019-01-04T11:44:20.763Z,47.00
2019-01-04T11:49:34.666Z,44.40
2019-01-04T11:54:39.701Z,50.93
2019-01-04T11:59:44.694Z,41.77
2019-01-04T12:04:49.715Z,43.90
2019-01-04T12:09:54.717Z,27.63
2019-01-04T12:14:59.720Z,33.17
2019-01-04T12:20:05.732Z,23.90
2019-01-04T12:25:10.709Z,14.67
2019-01-04T12:30:15.696Z,13.60
2019-01-04T12:35:20.692Z,17.10
2019-01-04T12:40:25.712Z,35.93
2019-01-04T12:45:30.695Z,49.07
2019-01-04T12:50:35.683Z,96.27
2019-01-04T12:55:40.691Z,135.20
2019-01-04T13:00:45.667Z,133.10
2019-01-04T13:05:50.681Z,78.93
2019-01-04T13:10:55.720Z,64.63
2019-01-04T13:16:00.708Z,96.50
2019-01-04T13:21:05.808Z,95.40
2019-01-04T13:26:10.813Z,134.67
2019-01-04T13:31:15.815Z,160.87
2019-01-04T13:36:20.852Z,168.77
2019-01-04T13:41:25.907Z,183.80
2019-01-04T13:46:30.963Z,192.33
2019-01-04T13:51:35.965Z,180.83
2019-01-04T13:56:40.979Z,169.70
2019-01-04T14:01:45.983Z,145.10
2019-01-04T14:06:51.203Z,72.63
2019-01-04T14:11:56.199Z,18.93
2019-01-04T14:17:01.257Z,21.07
2019-01-04T14:22:06.200Z,18.73
2019-01-04T14:27:12.667Z,24.33
2019-01-04T14:32:17.786Z,19.03
2019-01-04T14:37:23.425Z,21.03
2019-01-04T14:42:28.504Z,20.90
2019-01-04T14:47:36.973Z,16.40
2019-01-04T14:52:43.224Z,15.13
2019-01-04T14:57:48.544Z,17.57
2019-01-04T15:02:53.526Z,20.87
2019-01-04T15:07:58.707Z,20.87
2019-01-04T15:13:03.679Z,16.23
2019-01-04T15:18:08.683Z,21.97
2019-01-04T15:23:13.675Z,70.53
2019-01-04T15:28:18.651Z,19.53
2019-01-04T15:33:23.623Z,23.43
2019-01-04T15:38:28.604Z,23.50
2019-01-04T15:43:33.903Z,20.83
2019-01-04T15:48:38.953Z,41.90
2019-01-04T15:53:44.196Z,53.60
2019-01-04T15:58:49.177Z,39.33
2019-01-04T16:03:55.961Z,47.13
2019-01-04T16:09:01.175Z,64.47
2019-01-04T16:14:07.623Z,66.20
2019-01-04T16:19:12.598Z,65.67
2019-01-04T16:24:17.582Z,56.87
2019-01-04T16:29:22.569Z,63.03
2019-01-04T16:34:27.538Z,71.10
2019-01-04T16:39:32.510Z,75.53
2019-01-04T16:44:37.502Z,74.27
2019-01-04T16:49:42.540Z,89.93
2019-01-04T16:54:47.534Z,86.97
2019-01-04T16:59:52.523Z,92.77
2019-01-04T17:04:57.522Z,84.07
2019-01-04T17:10:02.500Z,104.37
2019-01-04T17:15:08.097Z,85.10
2019-01-04T17:20:13.079Z,101.50
2019-01-04T17:25:18.064Z,147.70
2019-01-04T17:30:23.062Z,94.23
2019-01-04T17:35:28.046Z,107.43
2019-01-04T17:40:33.042Z,85.00
2019-01-04T17:45:38.074Z,101.83
2019-01-04T17:50:43.073Z,127.97
2019-01-04T17:55:48.077Z,115.43
2019-01-04T18:00:53.062Z,116.63
2019-01-04T18:05:58.031Z,109.33
2019-01-04T18:11:03.030Z,122.63
2019-01-04T18:16:08.068Z,135.80
2019-01-04T18:21:13.052Z,152.10
2019-01-04T18:26:24.216Z,141.87
2019-01-04T18:31:24.652Z,132.67
2019-01-04T18:36:29.650Z,171.50
2019-01-04T18:41:34.848Z,188.53
2019-01-04T18:46:39.899Z,111.07
2019-01-04T18:51:44.887Z,104.33
2019-01-04T18:56:50.445Z,88.13
2019-01-04T19:01:55.444Z,82.00
2019-01-04T19:07:00.443Z,61.67
2019-01-04T19:12:05.426Z,53.27
2019-01-04T19:17:10.529Z,55.87
2019-01-04T19:22:15.508Z,52.00
2019-01-04T19:27:21.272Z,31.17
2019-01-04T19:32:26.230Z,38.07
2019-01-04T19:37:31.213Z,36.67
2019-01-04T19:42:36.191Z,36.50
2019-01-04T19:47:41.497Z,49.23
2019-01-04T19:52:46.488Z,64.63
2019-01-04T19:57:51.557Z,94.73
2019-01-04T20:02:56.537Z,89.17
2019-01-04T20:08:54.800Z,148.20
2019-01-04T20:15:03.671Z,109.13
2019-01-04T20:20:28.632Z,135.60
2019-01-04T20:25:51.442Z,101.30
2019-01-04T20:31:27.639Z,125.00
2019-01-04T20:42:31.504Z,121.23
2019-01-04T20:47:55.630Z,108.90
2019-01-04T20:53:28.911Z,182.50
2019-01-04T20:58:58.550Z,129.97
2019-01-04T21:04:22.506Z,147.33
2019-01-04T21:09:51.866Z,127.43
2019-01-04T21:15:14.855Z,108.67
2019-01-04T21:20:41.553Z,74.03
2019-01-04T21:26:05.517Z,84.87
2019-01-04T21:31:38.587Z,174.00
2019-01-04T21:37:13.967Z,148.53
2019-01-04T21:42:36.599Z,151.67
2019-01-04T21:48:03.699Z,183.20
2019-01-04T21:53:33.442Z,96.57
2019-01-04T21:58:56.168Z,121.40
2019-01-04T22:04:28.907Z,83.73
2019-01-04T22:09:58.748Z,121.37
2019-01-04T22:15:21.639Z,87.07
2019-01-04T22:21:00.934Z,61.67
2019-01-04T22:26:22.717Z,57.97
2019-01-04T22:31:45.202Z,62.63
2019-01-04T22:37:14.925Z,57.17
2019-01-04T22:42:42.003Z,44.97
2019-01-04T22:48:03.229Z,46.67
2019-01-04T22:53:24.861Z,44.83
2019-01-04T22:58:57.750Z,45.77
2019-01-04T23:04:34.390Z,48.23
2019-01-04T23:10:07.579Z,37.13
2019-01-04T23:15:37.542Z,43.37
2019-01-04T23:21:04.652Z,40.93
2019-01-04T23:26:35.935Z,45.90
2019-01-04T23:31:55.543Z,44.17
2019-01-04T23:37:17.998Z,52.57
2019-01-04T23:42:40.703Z,59.73
2019-01-04T23:48:07.643Z,57.37
2019-01-04T23:53:34.515Z,61.83
2019-01-04T23:59:01.200Z,67.73
